sensor_id;sensor_type;location;lat;lon;timestamp;pressure;altitude;pressure_sealevel;temperature;humidity
73220;BME280;61434;43.538;-5.688;2023-01-08T00:01:25;101128.31;;;13.28;67.43
73220;BME280;61434;43.538;-5.688;2023-01-08T00:03:52;101133.72;;;13.38;67.05
73220;BME280;61434;43.538;-5.688;2023-01-08T00:06:18;101126.88;;;13.33;68.07
73220;BME280;61434;43.538;-5.688;2023-01-08T00:08:45;101127.88;;;13.32;68.29
73220;BME280;61434;43.538;-5.688;2023-01-08T00:11:11;101129.00;;;13.30;68.71
73220;BME280;61434;43.538;-5.688;2023-01-08T00:13:37;101130.00;;;13.29;68.53
73220;BME280;61434;43.538;-5.688;2023-01-08T00:16:04;101129.56;;;13.24;69.23
73220;BME280;61434;43.538;-5.688;2023-01-08T00:18:30;101119.41;;;13.16;69.73
73220;BME280;61434;43.538;-5.688;2023-01-08T00:20:55;101108.78;;;13.24;69.39
73220;BME280;61434;43.538;-5.688;2023-01-08T00:23:20;101111.63;;;13.23;69.79
73220;BME280;61434;43.538;-5.688;2023-01-08T00:25:47;101112.63;;;13.31;69.17
73220;BME280;61434;43.538;-5.688;2023-01-08T00:28:12;101113.63;;;13.30;69.60
73220;BME280;61434;43.538;-5.688;2023-01-08T00:30:39;101112.94;;;13.28;70.24
73220;BME280;61434;43.538;-5.688;2023-01-08T00:33:05;101109.91;;;13.31;70.41
73220;BME280;61434;43.538;-5.688;2023-01-08T00:35:30;101098.31;;;13.10;71.78
73220;BME280;61434;43.538;-5.688;2023-01-08T00:37:56;101094.28;;;12.95;74.27
73220;BME280;61434;43.538;-5.688;2023-01-08T00:40:21;101102.13;;;13.07;73.18
73220;BME280;61434;43.538;-5.688;2023-01-08T00:42:47;101102.56;;;13.03;74.01
73220;BME280;61434;43.538;-5.688;2023-01-08T00:45:12;101107.41;;;12.99;73.62
73220;BME280;61434;43.538;-5.688;2023-01-08T00:47:38;101104.81;;;12.98;74.34
73220;BME280;61434;43.538;-5.688;2023-01-08T00:50:04;101109.25;;;12.99;74.80
73220;BME280;61434;43.538;-5.688;2023-01-08T00:52:29;101105.13;;;12.95;75.29
73220;BME280;61434;43.538;-5.688;2023-01-08T00:54:55;101112.22;;;12.96;76.21
73220;BME280;61434;43.538;-5.688;2023-01-08T00:57:20;101099.97;;;12.92;76.12
73220;BME280;61434;43.538;-5.688;2023-01-08T00:59:45;101108.19;;;12.80;76.72
73220;BME280;61434;43.538;-5.688;2023-01-08T01:02:11;101098.09;;;12.82;76.16
73220;BME280;61434;43.538;-5.688;2023-01-08T01:04:36;101102.81;;;12.90;75.75
73220;BME280;61434;43.538;-5.688;2023-01-08T01:07:02;101100.34;;;12.77;77.44
73220;BME280;61434;43.538;-5.688;2023-01-08T01:09:28;101096.81;;;12.87;76.45
73220;BME280;61434;43.538;-5.688;2023-01-08T01:11:53;101102.16;;;12.67;77.83
73220;BME280;61434;43.538;-5.688;2023-01-08T01:14:19;101093.50;;;12.73;78.14
73220;BME280;61434;43.538;-5.688;2023-01-08T01:16:44;101100.00;;;12.61;78.72
73220;BME280;61434;43.538;-5.688;2023-01-08T01:19:13;101090.00;;;12.52;78.53
73220;BME280;61434;43.538;-5.688;2023-01-08T01:21:39;101095.66;;;12.49;78.79
73220;BME280;61434;43.538;-5.688;2023-01-08T01:24:05;101089.53;;;12.47;79.36
73220;BME280;61434;43.538;-5.688;2023-01-08T01:26:32;101098.03;;;12.42;79.63
73220;BME280;61434;43.538;-5.688;2023-01-08T01:28:57;101086.94;;;12.45;80.03
73220;BME280;61434;43.538;-5.688;2023-01-08T01:31:25;101076.97;;;12.36;80.45
73220;BME280;61434;43.538;-5.688;2023-01-08T01:33:51;101073.94;;;12.50;79.85
73220;BME280;61434;43.538;-5.688;2023-01-08T01:36:20;101082.38;;;12.36;79.72
73220;BME280;61434;43.538;-5.688;2023-01-08T01:38:52;101084.09;;;12.37;nan
73220;BME280;61434;43.538;-5.688;2023-01-08T01:41:29;101082.25;;;12.38;80.11
73220;BME280;61434;43.538;-5.688;2023-01-08T01:43:57;101098.91;;;12.43;80.26
73220;BME280;61434;43.538;-5.688;2023-01-08T01:46:36;101089.66;;;12.45;80.39
73220;BME280;61434;43.538;-5.688;2023-01-08T01:49:07;101087.44;;;12.29;80.58
73220;BME280;61434;43.538;-5.688;2023-01-08T01:51:35;101083.94;;;12.39;80.61
73220;BME280;61434;43.538;-5.688;2023-01-08T01:54:03;101081.50;;;12.36;80.27
73220;BME280;61434;43.538;-5.688;2023-01-08T01:56:31;101080.25;;;12.40;80.54
73220;BME280;61434;43.538;-5.688;2023-01-08T01:58:57;101081.00;;;12.42;80.45
73220;BME280;61434;43.538;-5.688;2023-01-08T02:01:23;101070.44;;;12.39;80.80
73220;BME280;61434;43.538;-5.688;2023-01-08T02:03:49;101074.00;;;12.39;80.65
73220;BME280;61434;43.538;-5.688;2023-01-08T02:14:07;101053.06;;;12.31;81.82
73220;BME280;61434;43.538;-5.688;2023-01-08T02:16:49;101058.03;;;12.26;81.50
73220;BME280;61434;43.538;-5.688;2023-01-08T02:22:23;101055.44;;;12.25;81.71
73220;BME280;61434;43.538;-5.688;2023-01-08T02:25:13;101055.63;;;12.33;80.99
73220;BME280;61434;43.538;-5.688;2023-01-08T02:27:44;101046.22;;;12.27;81.65
73220;BME280;61434;43.538;-5.688;2023-01-08T02:30:11;101045.19;;;12.19;81.19
73220;BME280;61434;43.538;-5.688;2023-01-08T02:32:38;101032.66;;;12.18;81.74
73220;BME280;61434;43.538;-5.688;2023-01-08T02:35:05;101031.56;;;12.30;81.53
73220;BME280;61434;43.538;-5.688;2023-01-08T02:37:31;101032.97;;;12.24;81.62
73220;BME280;61434;43.538;-5.688;2023-01-08T02:40:14;101026.50;;;12.37;80.96
73220;BME280;61434;43.538;-5.688;2023-01-08T02:42:53;101026.63;;;12.35;80.98
73220;BME280;61434;43.538;-5.688;2023-01-08T02:47:52;101032.03;;;12.35;80.95
73220;BME280;61434;43.538;-5.688;2023-01-08T02:50:36;101025.78;;;12.35;80.81
73220;BME280;61434;43.538;-5.688;2023-01-08T02:53:15;101042.13;;;12.33;80.59
73220;BME280;61434;43.538;-5.688;2023-01-08T02:55:46;101032.16;;;12.33;80.33
73220;BME280;61434;43.538;-5.688;2023-01-08T02:58:14;101035.28;;;12.29;80.65
73220;BME280;61434;43.538;-5.688;2023-01-08T03:00:41;101034.41;;;12.28;80.92
73220;BME280;61434;43.538;-5.688;2023-01-08T03:03:15;101031.56;;;12.30;80.82
73220;BME280;61434;43.538;-5.688;2023-01-08T03:05:46;101025.53;;;12.17;81.16
73220;BME280;61434;43.538;-5.688;2023-01-08T03:08:12;101030.41;;;12.23;80.67
73220;BME280;61434;43.538;-5.688;2023-01-08T03:10:41;101026.13;;;12.20;80.58
73220;BME280;61434;43.538;-5.688;2023-01-08T03:13:18;101006.97;;;12.23;80.87
73220;BME280;61434;43.538;-5.688;2023-01-08T03:15:50;101006.22;;;12.21;81.27
73220;BME280;61434;43.538;-5.688;2023-01-08T03:18:30;100991.56;;;12.14;81.52
73220;BME280;61434;43.538;-5.688;2023-01-08T03:21:00;100996.25;;;12.12;81.50
73220;BME280;61434;43.538;-5.688;2023-01-08T03:23:26;100979.50;;;12.18;81.61
73220;BME280;61434;43.538;-5.688;2023-01-08T03:25:53;100974.38;;;12.15;81.46
73220;BME280;61434;43.538;-5.688;2023-01-08T03:28:22;100980.50;;;12.17;81.11
73220;BME280;61434;43.538;-5.688;2023-01-08T03:30:50;100981.66;;;12.24;80.89
73220;BME280;61434;43.538;-5.688;2023-01-08T03:33:18;100971.41;;;12.18;80.95
73220;BME280;61434;43.538;-5.688;2023-01-08T03:35:47;100975.56;;;12.22;80.66
73220;BME280;61434;43.538;-5.688;2023-01-08T03:38:19;100969.41;;;12.20;81.20
73220;BME280;61434;43.538;-5.688;2023-01-08T03:40:53;100947.91;;;12.09;81.84
73220;BME280;61434;43.538;-5.688;2023-01-08T03:43:20;100944.22;;;12.10;82.32
73220;BME280;61434;43.538;-5.688;2023-01-08T03:45:50;100936.97;;;12.11;81.98
73220;BME280;61434;43.538;-5.688;2023-01-08T03:48:18;100934.41;;;12.09;81.99
73220;BME280;61434;43.538;-5.688;2023-01-08T03:50:45;100919.94;;;12.10;82.14
73220;BME280;61434;43.538;-5.688;2023-01-08T03:53:11;100923.88;;;12.06;81.82
73220;BME280;61434;43.538;-5.688;2023-01-08T03:55:36;100914.25;;;12.13;81.36
73220;BME280;61434;43.538;-5.688;2023-01-08T03:58:01;100908.00;;;12.13;81.33
73220;BME280;61434;43.538;-5.688;2023-01-08T04:00:27;100895.91;;;12.17;81.33
73220;BME280;61434;43.538;-5.688;2023-01-08T04:02:53;100891.47;;;12.06;81.83
73220;BME280;61434;43.538;-5.688;2023-01-08T04:05:18;100892.63;;;12.03;82.65
73220;BME280;61434;43.538;-5.688;2023-01-08T04:07:44;100867.75;;;12.00;82.29
73220;BME280;61434;43.538;-5.688;2023-01-08T04:10:09;100854.94;;;12.02;82.15
73220;BME280;61434;43.538;-5.688;2023-01-08T04:12:35;100849.47;;;11.82;82.54
73220;BME280;61434;43.538;-5.688;2023-01-08T04:15:00;100849.13;;;11.97;83.13
73220;BME280;61434;43.538;-5.688;2023-01-08T04:17:26;100839.56;;;11.93;82.70
73220;BME280;61434;43.538;-5.688;2023-01-08T04:19:51;100836.88;;;11.93;82.52
73220;BME280;61434;43.538;-5.688;2023-01-08T04:22:17;100850.56;;;12.01;82.61
73220;BME280;61434;43.538;-5.688;2023-01-08T04:24:42;100850.41;;;12.02;82.10
73220;BME280;61434;43.538;-5.688;2023-01-08T04:27:07;100848.59;;;12.03;81.64
73220;BME280;61434;43.538;-5.688;2023-01-08T04:29:33;100837.06;;;12.01;81.58
73220;BME280;61434;43.538;-5.688;2023-01-08T04:31:59;100844.75;;;12.05;81.62
73220;BME280;61434;43.538;-5.688;2023-01-08T04:34:24;100833.09;;;12.05;81.28
73220;BME280;61434;43.538;-5.688;2023-01-08T04:36:50;100833.34;;;12.02;81.38
73220;BME280;61434;43.538;-5.688;2023-01-08T04:39:15;100819.16;;;12.00;81.24
73220;BME280;61434;43.538;-5.688;2023-01-08T04:41:41;100824.44;;;12.11;80.64
73220;BME280;61434;43.538;-5.688;2023-01-08T04:44:07;100811.09;;;12.10;80.69
73220;BME280;61434;43.538;-5.688;2023-01-08T04:46:33;100810.50;;;12.06;80.50
73220;BME280;61434;43.538;-5.688;2023-01-08T04:48:58;100810.50;;;12.06;80.65
73220;BME280;61434;43.538;-5.688;2023-01-08T04:51:24;100808.13;;;12.13;80.56
73220;BME280;61434;43.538;-5.688;2023-01-08T04:53:50;100800.88;;;12.13;80.41
73220;BME280;61434;43.538;-5.688;2023-01-08T04:56:16;100788.19;;;12.04;80.48
73220;BME280;61434;43.538;-5.688;2023-01-08T04:58:41;100787.78;;;12.09;80.50
73220;BME280;61434;43.538;-5.688;2023-01-08T05:01:18;100785.78;;;12.11;81.23
73220;BME280;61434;43.538;-5.688;2023-01-08T05:03:44;100782.81;;;12.14;80.86
73220;BME280;61434;43.538;-5.688;2023-01-08T05:06:09;100773.97;;;12.12;80.89
73220;BME280;61434;43.538;-5.688;2023-01-08T05:08:35;100775.97;;;12.00;81.18
73220;BME280;61434;43.538;-5.688;2023-01-08T05:11:01;100767.19;;;12.07;80.99
73220;BME280;61434;43.538;-5.688;2023-01-08T05:13:27;100757.22;;;12.08;80.63
73220;BME280;61434;43.538;-5.688;2023-01-08T05:15:56;100743.00;;;12.06;80.64
73220;BME280;61434;43.538;-5.688;2023-01-08T05:18:28;100734.38;;;12.12;80.86
73220;BME280;61434;43.538;-5.688;2023-01-08T05:20:58;100731.66;;;12.12;80.75
73220;BME280;61434;43.538;-5.688;2023-01-08T05:23:23;100731.50;;;12.04;81.67
73220;BME280;61434;43.538;-5.688;2023-01-08T05:25:49;100713.63;;;12.13;81.28
73220;BME280;61434;43.538;-5.688;2023-01-08T05:28:14;100705.78;;;12.10;81.14
73220;BME280;61434;43.538;-5.688;2023-01-08T05:30:40;100697.25;;;12.14;80.74
73220;BME280;61434;43.538;-5.688;2023-01-08T05:33:05;100701.22;;;12.00;80.89
73220;BME280;61434;43.538;-5.688;2023-01-08T05:35:31;100698.13;;;12.05;81.38
73220;BME280;61434;43.538;-5.688;2023-01-08T05:37:59;100696.25;;;12.05;81.00
73220;BME280;61434;43.538;-5.688;2023-01-08T05:40:24;100684.47;;;12.06;81.20
73220;BME280;61434;43.538;-5.688;2023-01-08T05:42:50;100697.84;;;12.08;81.60
73220;BME280;61434;43.538;-5.688;2023-01-08T05:45:15;100697.84;;;11.98;81.93
73220;BME280;61434;43.538;-5.688;2023-01-08T05:47:41;100707.34;;;12.02;81.43
73220;BME280;61434;43.538;-5.688;2023-01-08T05:50:07;100709.06;;;12.03;82.07
73220;BME280;61434;43.538;-5.688;2023-01-08T05:52:32;100708.06;;;12.04;81.42
73220;BME280;61434;43.538;-5.688;2023-01-08T05:54:58;100727.94;;;11.94;81.50
73220;BME280;61434;43.538;-5.688;2023-01-08T05:57:25;100702.91;;;11.82;82.44
73220;BME280;61434;43.538;-5.688;2023-01-08T05:59:50;100696.69;;;12.01;81.25
73220;BME280;61434;43.538;-5.688;2023-01-08T06:02:16;100711.75;;;11.94;81.69
73220;BME280;61434;43.538;-5.688;2023-01-08T06:04:42;100706.34;;;11.84;82.25
73220;BME280;61434;43.538;-5.688;2023-01-08T06:07:08;100702.66;;;11.95;81.88
73220;BME280;61434;43.538;-5.688;2023-01-08T06:09:33;100697.69;;;12.00;82.10
73220;BME280;61434;43.538;-5.688;2023-01-08T06:11:59;100687.31;;;11.95;82.32
73220;BME280;61434;43.538;-5.688;2023-01-08T06:14:24;100681.50;;;12.00;82.59
73220;BME280;61434;43.538;-5.688;2023-01-08T06:16:50;100681.22;;;12.03;82.27
73220;BME280;61434;43.538;-5.688;2023-01-08T06:19:15;100675.66;;;11.95;82.94
73220;BME280;61434;43.538;-5.688;2023-01-08T06:21:43;100679.22;;;11.86;83.31
73220;BME280;61434;43.538;-5.688;2023-01-08T06:24:08;100672.69;;;11.88;83.50
73220;BME280;61434;43.538;-5.688;2023-01-08T06:26:34;100675.94;;;11.92;83.15
73220;BME280;61434;43.538;-5.688;2023-01-08T06:28:59;100671.25;;;11.94;83.28
73220;BME280;61434;43.538;-5.688;2023-01-08T06:31:25;100675.25;;;11.90;83.29
73220;BME280;61434;43.538;-5.688;2023-01-08T06:33:50;100667.28;;;11.88;83.22
73220;BME280;61434;43.538;-5.688;2023-01-08T06:36:16;100673.34;;;11.80;83.32
73220;BME280;61434;43.538;-5.688;2023-01-08T06:38:41;100663.00;;;11.86;82.97
73220;BME280;61434;43.538;-5.688;2023-01-08T06:41:08;100662.88;;;11.87;82.72
73220;BME280;61434;43.538;-5.688;2023-01-08T06:43:36;100655.91;;;11.94;82.41
73220;BME280;61434;43.538;-5.688;2023-01-08T06:46:02;100667.41;;;11.87;82.71
73220;BME280;61434;43.538;-5.688;2023-01-08T06:48:27;100665.56;;;11.87;83.50
73220;BME280;61434;43.538;-5.688;2023-01-08T06:50:53;100672.34;;;11.81;83.61
73220;BME280;61434;43.538;-5.688;2023-01-08T06:53:19;100668.69;;;11.92;83.88
73220;BME280;61434;43.538;-5.688;2023-01-08T06:55:44;100675.81;;;11.84;83.75
73220;BME280;61434;43.538;-5.688;2023-01-08T06:58:10;100695.56;;;11.84;84.19
73220;BME280;61434;43.538;-5.688;2023-01-08T07:00:38;100707.88;;;11.87;83.96
73220;BME280;61434;43.538;-5.688;2023-01-08T07:03:04;100726.59;;;11.78;83.84
73220;BME280;61434;43.538;-5.688;2023-01-08T07:05:30;100715.72;;;11.90;83.25
73220;BME280;61434;43.538;-5.688;2023-01-08T07:07:55;100729.38;;;11.88;83.37
73220;BME280;61434;43.538;-5.688;2023-01-08T07:10:21;100735.56;;;11.79;84.03
73220;BME280;61434;43.538;-5.688;2023-01-08T07:12:47;100706.56;;;11.81;83.53
73220;BME280;61434;43.538;-5.688;2023-01-08T07:15:13;100679.34;;;11.84;83.87
73220;BME280;61434;43.538;-5.688;2023-01-08T07:17:38;100679.22;;;11.86;83.92
73220;BME280;61434;43.538;-5.688;2023-01-08T07:20:04;100688.53;;;11.81;84.28
73220;BME280;61434;43.538;-5.688;2023-01-08T07:22:30;100695.09;;;11.79;84.23
73220;BME280;61434;43.538;-5.688;2023-01-08T07:24:56;100678.75;;;11.80;84.22
73220;BME280;61434;43.538;-5.688;2023-01-08T07:27:21;100671.66;;;11.79;84.20
73220;BME280;61434;43.538;-5.688;2023-01-08T07:29:47;100649.19;;;11.69;84.84
73220;BME280;61434;43.538;-5.688;2023-01-08T07:32:12;100634.28;;;11.65;84.81
73220;BME280;61434;43.538;-5.688;2023-01-08T07:34:38;100630.75;;;11.74;84.58
73220;BME280;61434;43.538;-5.688;2023-01-08T07:37:03;100633.72;;;11.71;84.46
73220;BME280;61434;43.538;-5.688;2023-01-08T07:39:29;100629.00;;;11.64;85.01
73220;BME280;61434;43.538;-5.688;2023-01-08T07:41:54;100620.06;;;11.73;84.79
73220;BME280;61434;43.538;-5.688;2023-01-08T07:44:20;100610.00;;;11.75;84.08
73220;BME280;61434;43.538;-5.688;2023-01-08T07:46:45;100620.06;;;11.73;83.98
73220;BME280;61434;43.538;-5.688;2023-01-08T07:49:11;100620.22;;;11.62;84.94
73220;BME280;61434;43.538;-5.688;2023-01-08T07:51:36;100613.69;;;11.64;84.61
73220;BME280;61434;43.538;-5.688;2023-01-08T07:54:02;100609.59;;;11.70;84.99
73220;BME280;61434;43.538;-5.688;2023-01-08T07:56:27;100624.50;;;11.74;84.46
73220;BME280;61434;43.538;-5.688;2023-01-08T07:58:53;100614.66;;;11.53;85.22
73220;BME280;61434;43.538;-5.688;2023-01-08T08:01:18;100601.75;;;11.57;85.29
73220;BME280;61434;43.538;-5.688;2023-01-08T08:03:44;100575.19;;;11.52;85.19
73220;BME280;61434;43.538;-5.688;2023-01-08T08:06:10;100606.47;;;11.65;84.87
73220;BME280;61434;43.538;-5.688;2023-01-08T08:08:35;100597.06;;;11.59;84.91
73220;BME280;61434;43.538;-5.688;2023-01-08T08:11:01;100599.47;;;11.62;84.63
73220;BME280;61434;43.538;-5.688;2023-01-08T08:13:26;100605.16;;;11.69;84.28
73220;BME280;61434;43.538;-5.688;2023-01-08T08:15:52;100633.28;;;11.76;84.23
73220;BME280;61434;43.538;-5.688;2023-01-08T08:18:17;100626.72;;;11.59;84.35
73220;BME280;61434;43.538;-5.688;2023-01-08T08:20:43;100628.88;;;11.65;84.20
73220;BME280;61434;43.538;-5.688;2023-01-08T08:23:11;100624.91;;;11.50;84.70
73220;BME280;61434;43.538;-5.688;2023-01-08T08:25:38;100618.50;;;11.61;84.62
73220;BME280;61434;43.538;-5.688;2023-01-08T08:28:04;100609.59;;;11.70;84.18
73220;BME280;61434;43.538;-5.688;2023-01-08T08:30:32;100609.28;;;11.63;84.37
73220;BME280;61434;43.538;-5.688;2023-01-08T08:33:00;100606.03;;;11.60;84.38
73220;BME280;61434;43.538;-5.688;2023-01-08T08:35:25;100603.59;;;11.66;84.50
73220;BME280;61434;43.538;-5.688;2023-01-08T08:37:52;100599.34;;;11.73;84.20
73220;BME280;61434;43.538;-5.688;2023-01-08T08:40:18;100613.97;;;11.80;84.03
73220;BME280;61434;43.538;-5.688;2023-01-08T08:42:43;100628.47;;;11.60;84.30
73220;BME280;61434;43.538;-5.688;2023-01-08T08:45:09;100616.81;;;11.60;84.75
73220;BME280;61434;43.538;-5.688;2023-01-08T08:47:34;100621.31;;;11.49;85.03
73220;BME280;61434;43.538;-5.688;2023-01-08T08:50:00;100607.41;;;11.54;85.43
73220;BME280;61434;43.538;-5.688;2023-01-08T08:52:26;100607.00;;;11.59;85.35
73220;BME280;61434;43.538;-5.688;2023-01-08T08:54:52;100607.16;;;11.57;85.19
73220;BME280;61434;43.538;-5.688;2023-01-08T08:57:17;100614.13;;;11.60;85.26
73220;BME280;61434;43.538;-5.688;2023-01-08T08:59:43;100625.88;;;11.59;85.05
73220;BME280;61434;43.538;-5.688;2023-01-08T09:02:09;100625.00;;;11.48;85.81
73220;BME280;61434;43.538;-5.688;2023-01-08T09:04:36;100615.38;;;11.46;86.06
73220;BME280;61434;43.538;-5.688;2023-01-08T09:07:01;100596.06;;;11.41;86.11
73220;BME280;61434;43.538;-5.688;2023-01-08T09:09:27;100605.69;;;11.34;86.28
73220;BME280;61434;43.538;-5.688;2023-01-08T09:11:53;100591.13;;;11.55;86.14
73220;BME280;61434;43.538;-5.688;2023-01-08T09:14:19;100586.25;;;11.59;85.56
73220;BME280;61434;43.538;-5.688;2023-01-08T09:16:45;100597.94;;;11.60;85.41
73220;BME280;61434;43.538;-5.688;2023-01-08T09:19:10;100617.53;;;11.71;85.66
73220;BME280;61434;43.538;-5.688;2023-01-08T09:21:36;100623.34;;;11.67;85.21
73220;BME280;61434;43.538;-5.688;2023-01-08T09:24:02;100622.75;;;11.63;85.27
73220;BME280;61434;43.538;-5.688;2023-01-08T09:26:27;100627.31;;;11.63;84.89
73220;BME280;61434;43.538;-5.688;2023-01-08T09:28:55;100630.31;;;11.69;85.28
73220;BME280;61434;43.538;-5.688;2023-01-08T09:31:20;100621.66;;;11.75;85.17
73220;BME280;61434;43.538;-5.688;2023-01-08T09:33:47;100624.94;;;11.79;84.66
73220;BME280;61434;43.538;-5.688;2023-01-08T09:36:13;100627.47;;;11.80;84.35
73220;BME280;61434;43.538;-5.688;2023-01-08T09:38:38;100625.34;;;11.65;84.78
73220;BME280;61434;43.538;-5.688;2023-01-08T09:41:07;100610.41;;;11.61;85.43
73220;BME280;61434;43.538;-5.688;2023-01-08T09:43:36;100602.47;;;11.69;84.95
73220;BME280;61434;43.538;-5.688;2023-01-08T09:46:05;100605.72;;;11.63;85.21
73220;BME280;61434;43.538;-5.688;2023-01-08T09:48:36;100594.66;;;11.66;85.37
73220;BME280;61434;43.538;-5.688;2023-01-08T09:51:03;100595.25;;;11.69;85.15
73220;BME280;61434;43.538;-5.688;2023-01-08T09:53:31;100589.84;;;11.69;85.33
73220;BME280;61434;43.538;-5.688;2023-01-08T09:56:03;100589.97;;;11.77;85.11
73220;BME280;61434;43.538;-5.688;2023-01-08T09:58:36;100591.00;;;11.96;84.52
73220;BME280;61434;43.538;-5.688;2023-01-08T10:01:04;100599.81;;;11.88;84.44
73220;BME280;61434;43.538;-5.688;2023-01-08T10:03:42;100590.72;;;11.99;84.35
73220;BME280;61434;43.538;-5.688;2023-01-08T10:06:10;100586.44;;;11.96;83.85
73220;BME280;61434;43.538;-5.688;2023-01-08T10:08:36;100586.16;;;12.09;83.68
73220;BME280;61434;43.538;-5.688;2023-01-08T10:11:03;100585.31;;;12.09;83.24
73220;BME280;61434;43.538;-5.688;2023-01-08T10:13:31;100590.41;;;12.02;83.34
73220;BME280;61434;43.538;-5.688;2023-01-08T10:15:57;100603.91;;;12.12;83.13
73220;BME280;61434;43.538;-5.688;2023-01-08T10:18:25;100615.13;;;12.17;83.08
73220;BME280;61434;43.538;-5.688;2023-01-08T10:20:52;100613.13;;;12.19;82.98
73220;BME280;61434;43.538;-5.688;2023-01-08T10:23:20;100608.00;;;12.16;82.60
73220;BME280;61434;43.538;-5.688;2023-01-08T10:25:58;100604.75;;;12.22;82.81
73220;BME280;61434;43.538;-5.688;2023-01-08T10:28:28;100620.97;;;12.22;82.68
73220;BME280;61434;43.538;-5.688;2023-01-08T10:31:14;100620.22;;;12.29;82.16
73220;BME280;61434;43.538;-5.688;2023-01-08T10:33:46;100626.22;;;12.23;82.03
73220;BME280;61434;43.538;-5.688;2023-01-08T10:36:22;100623.22;;;12.36;82.52
73220;BME280;61434;43.538;-5.688;2023-01-08T10:38:57;100625.59;;;12.39;81.66
73220;BME280;61434;43.538;-5.688;2023-01-08T10:41:24;100637.00;;;12.33;81.82
73220;BME280;61434;43.538;-5.688;2023-01-08T10:43:54;100634.44;;;12.31;81.96
73220;BME280;61434;43.538;-5.688;2023-01-08T10:46:27;100632.28;;;12.35;82.23
73220;BME280;61434;43.538;-5.688;2023-01-08T10:48:57;100635.84;;;12.36;82.10
73220;BME280;61434;43.538;-5.688;2023-01-08T10:51:24;100630.03;;;12.30;81.33
73220;BME280;61434;43.538;-5.688;2023-01-08T10:53:56;100628.44;;;12.47;81.94
73220;BME280;61434;43.538;-5.688;2023-01-08T10:58:48;100629.09;;;12.59;81.38
73220;BME280;61434;43.538;-5.688;2023-01-08T11:03:49;100633.97;;;12.55;80.54
73220;BME280;61434;43.538;-5.688;2023-01-08T11:06:22;100647.47;;;12.65;80.27
73220;BME280;61434;43.538;-5.688;2023-01-08T11:08:56;100637.78;;;12.63;80.02
73220;BME280;61434;43.538;-5.688;2023-01-08T11:11:23;100641.31;;;12.73;80.05
73220;BME280;61434;43.538;-5.688;2023-01-08T11:14:00;100641.88;;;12.76;80.18
73220;BME280;61434;43.538;-5.688;2023-01-08T11:16:32;100634.00;;;12.83;80.01
73220;BME280;61434;43.538;-5.688;2023-01-08T11:18:58;100649.13;;;12.76;80.54
73220;BME280;61434;43.538;-5.688;2023-01-08T11:21:27;100658.69;;;12.70;80.61
73220;BME280;61434;43.538;-5.688;2023-01-08T11:24:15;100667.69;;;12.89;80.35
73220;BME280;61434;43.538;-5.688;2023-01-08T11:35:26;100659.50;;;13.18;80.75
73220;BME280;61434;43.538;-5.688;2023-01-08T11:38:00;100661.94;;;13.11;81.20
73220;BME280;61434;43.538;-5.688;2023-01-08T11:46:15;100647.03;;;13.62;80.42
73220;BME280;61434;43.538;-5.688;2023-01-08T11:49:17;100653.06;;;13.74;79.86
73220;BME280;61434;43.538;-5.688;2023-01-08T12:03:07;100638.16;;;14.05;78.20
73220;BME280;61434;43.538;-5.688;2023-01-08T12:08:23;100626.66;;;14.29;77.86
73220;BME280;61434;43.538;-5.688;2023-01-08T12:11:01;100624.22;;;14.18;78.69
73220;BME280;61434;43.538;-5.688;2023-01-08T12:21:31;100640.22;;;14.11;80.66
73220;BME280;61434;43.538;-5.688;2023-01-08T12:32:48;100637.22;;;13.79;83.24
73220;BME280;61434;43.538;-5.688;2023-01-08T12:35:23;100635.81;;;13.75;83.99
73220;BME280;61434;43.538;-5.688;2023-01-08T12:38:11;100642.94;;;13.76;83.67
73220;BME280;61434;43.538;-5.688;2023-01-08T12:40:41;100640.75;;;13.79;84.25
73220;BME280;61434;43.538;-5.688;2023-01-08T12:43:14;100646.72;;;13.65;84.42
73220;BME280;61434;43.538;-5.688;2023-01-08T12:45:47;100650.75;;;13.61;85.48
73220;BME280;61434;43.538;-5.688;2023-01-08T12:48:18;100631.31;;;13.48;85.62
73220;BME280;61434;43.538;-5.688;2023-01-08T13:03:57;100645.94;;;13.55;87.98
73220;BME280;61434;43.538;-5.688;2023-01-08T13:06:23;100638.38;;;13.58;88.22
73220;BME280;61434;43.538;-5.688;2023-01-08T13:08:51;100640.63;;;13.63;88.81
73220;BME280;61434;43.538;-5.688;2023-01-08T13:11:30;100644.53;;;13.51;89.36
73220;BME280;61434;43.538;-5.688;2023-01-08T13:16:25;100632.16;;;13.48;89.76
73220;BME280;61434;43.538;-5.688;2023-01-08T13:18:57;100643.00;;;13.48;89.76
73220;BME280;61434;43.538;-5.688;2023-01-08T13:21:41;100639.53;;;13.56;90.02
73220;BME280;61434;43.538;-5.688;2023-01-08T13:27:07;100640.84;;;13.70;89.58
73220;BME280;61434;43.538;-5.688;2023-01-08T13:29:43;100639.25;;;13.77;89.31
73220;BME280;61434;43.538;-5.688;2023-01-08T13:32:42;100632.91;;;13.86;89.17
73220;BME280;61434;43.538;-5.688;2023-01-08T13:37:49;100628.69;;;13.74;88.50
73220;BME280;61434;43.538;-5.688;2023-01-08T13:40:38;100637.84;;;13.91;88.30
73220;BME280;61434;43.538;-5.688;2023-01-08T13:43:14;100639.00;;;13.88;87.69
73220;BME280;61434;43.538;-5.688;2023-01-08T13:45:41;100652.69;;;13.86;87.65
73220;BME280;61434;43.538;-5.688;2023-01-08T13:50:52;100650.13;;;14.03;86.82
73220;BME280;61434;43.538;-5.688;2023-01-08T13:53:19;100646.44;;;14.04;86.72
73220;BME280;61434;43.538;-5.688;2023-01-08T13:55:55;100652.25;;;14.09;86.46
73220;BME280;61434;43.538;-5.688;2023-01-08T13:58:32;100653.38;;;14.24;86.67
73220;BME280;61434;43.538;-5.688;2023-01-08T14:00:58;100648.19;;;14.31;85.95
73220;BME280;61434;43.538;-5.688;2023-01-08T14:06:07;100645.63;;;14.29;86.06
73220;BME280;61434;43.538;-5.688;2023-01-08T14:08:48;100648.50;;;14.28;86.00
73220;BME280;61434;43.538;-5.688;2023-01-08T14:11:14;100658.34;;;14.29;85.88
73220;BME280;61434;43.538;-5.688;2023-01-08T14:13:41;100661.19;;;14.27;85.84
73220;BME280;61434;43.538;-5.688;2023-01-08T14:16:11;100664.31;;;14.32;86.06